Teos — 3EBV5 — position and weather

sailwx.info

Track history (hours):
 
Tides and Currents Weather Stations Pressure Air Temp Water Temp Dewpoint Dewpoint Depression Visibility Wind Speed Wind Dir Waves Ship Positions

Teos

Last reported at 2018-May-23 06:33 UTC. Time now 2018-Jun-22 14:54 UTC.
Position N 35°57' W 005°36'.
Warning: this ship's position is 30 days out of date.

Length 101 m; draft 5 m.

Type: Cargo ship. MMSI: 356562000.

Date/timePositionNaut miles runAvg speedWind from/ knotsBaromVisibWave heightAir tempDewpointWater temp
2018-May-23 06:33N 35°57' W 005°36'112.9
2018-May-23 06:30N 35°57' W 005°35'612.1
2018-May-23 06:00N 35°59' W 005°28'510.8
2018-May-23 05:31N 36°01' W 005°22'510.0
2018-May-23 05:00N 36°02' W 005°16'510.2
2018-May-23 04:31N 36°03' W 005°09'21712.3
2018-May-22 10:55N 36°38' W 000°43'912.3
2018-May-22 10:09N 36°39' W 000°32'  
2018-May-17 03:15N 32°06' E 030°46'613.0
2018-May-17 02:50N 32°05' E 030°52'413.0
2018-May-17 02:29N 32°03' E 030°57'712.7
2018-May-17 01:57N 32°01' E 031°05'612.5
2018-May-17 01:30N 31°59' E 031°11'612.6
2018-May-17 01:00N 31°57' E 031°18'3712.5
2018-May-16 22:00N 31°44' E 031°60'612.3
2018-May-16 21:30N 31°40' E 032°05'612.4
2018-May-16 20:58N 31°36' E 032°10'912.2
2018-May-16 20:16N 31°30' E 032°18'312.4
2018-May-16 20:00N 31°28' E 032°21'6 9.9
2018-May-16 19:27N 31°23' E 032°24'10 9.6
2018-May-16 18:25N 31°13' E 032°21'3 6.9
2018-May-16 18:00N 31°11' E 032°20'4 7.0
2018-May-16 17:30N 31°07' E 032°19'5 8.4
2018-May-16 16:52N 31°02' E 032°19'  
Track history (hours):
 
Tides and Currents Weather Stations Pressure Air Temp Water Temp Dewpoint Dewpoint Depression Visibility Wind Speed Wind Dir Waves Ship Positions

Teos

Last reported at 2018-May-23 06:33 UTC. Time now 2018-Jun-22 14:54 UTC.
Position N 35°57' W 005°36'.
Warning: this ship's position is 30 days out of date.

Length 101 m; draft 5 m.

Type: Cargo ship. MMSI: 356562000.

Date/timePositionNaut miles runAvg speedWind from/ knotsBaromVisibWave heightAir tempDewpointWater temp
2018-May-23 06:33N 35°57' W 005°36'112.9
2018-May-23 06:30N 35°57' W 005°35'612.1
2018-May-23 06:00N 35°59' W 005°28'510.8
2018-May-23 05:31N 36°01' W 005°22'510.0
2018-May-23 05:00N 36°02' W 005°16'510.2
2018-May-23 04:31N 36°03' W 005°09'21712.3
2018-May-22 10:55N 36°38' W 000°43'912.3
2018-May-22 10:09N 36°39' W 000°32'  
2018-May-17 03:15N 32°06' E 030°46'613.0
2018-May-17 02:50N 32°05' E 030°52'413.0
2018-May-17 02:29N 32°03' E 030°57'712.7
2018-May-17 01:57N 32°01' E 031°05'612.5
2018-May-17 01:30N 31°59' E 031°11'612.6
2018-May-17 01:00N 31°57' E 031°18'3712.5
2018-May-16 22:00N 31°44' E 031°60'612.3
2018-May-16 21:30N 31°40' E 032°05'612.4
2018-May-16 20:58N 31°36' E 032°10'912.2
2018-May-16 20:16N 31°30' E 032°18'312.4
2018-May-16 20:00N 31°28' E 032°21'6 9.9
2018-May-16 19:27N 31°23' E 032°24'10 9.6
2018-May-16 18:25N 31°13' E 032°21'3 6.9
2018-May-16 18:00N 31°11' E 032°20'4 7.0
2018-May-16 17:30N 31°07' E 032°19'5 8.4
2018-May-16 16:52N 31°02' E 032°19'  

Dump ship's entire track history